»·PEaware :: AMX233 KSLC-KSNA

AMX233 :: KSLC-KSNA

FLIGHT INFORMATION

Flight Status: Arrived
Operator:
Aeromexico
More flights by this operator :: More flights under this callsign
Pilot: William H. (1753)
Aircraft: AIRBUS A320
(A320)
More flights by this aircraft type
Origin: KSLC Salt Lake City Intl
United States
Destination: KSNA John Wayne-Orange Co
United States
More flights between these airports :: More routes between these airports
Route: WEVIC6 EHK BLD Q114 NATEE DSNEE3
File this flight plan on PilotEdge
Remarks: PBN / A1B1C1D1O1S1 DOF / 180428 REG / N760FC EET / KZLA0034 OPR / AMX PER / C RMK / TCAS
Altitude:
(Current/Filed)
38,000ft
Speed:
(Current/Filed)
436kts
Departed: 28-Apr-18 04:38 PM
Arrived: 28-Apr-18 06:05 PM
Distance/Time
Traveled:
511nm/1:27
Distance/Time
To Go:
Arrived

Flight Plot

Page will automatically refresh every two minutes.

Flight plan parsing failed; only flown route is shown


Map Options




Map Legend


Flown Route
Filed Route
Departure Airport
Arrival Airport
Navaid (VOR, NDB)
Fix

Horizontal Profiles

Position Reports

Time Latitude Longitude Heading Altitude Ground
Speed
28-Apr-18 16:05 40.786745 -111.978273 313 4236ft 0kts
28-Apr-18 16:06 40.786745 -111.978273 313 4236ft 0kts
28-Apr-18 16:07 40.786745 -111.978273 313 4236ft 0kts
28-Apr-18 16:08 40.786745 -111.978273 313 4236ft 0kts
28-Apr-18 16:09 40.786745 -111.978273 313 4236ft 0kts
28-Apr-18 16:10 40.786745 -111.978273 313 4236ft 0kts
28-Apr-18 16:11 40.786745 -111.978273 313 4236ft 0kts
28-Apr-18 16:12 40.786745 -111.978273 313 4236ft 0kts
28-Apr-18 16:13 40.786745 -111.978273 313 4236ft 0kts
28-Apr-18 16:14 40.786745 -111.978273 313 4236ft 0kts
28-Apr-18 16:15 40.786745 -111.978273 313 4236ft 0kts
28-Apr-18 16:16 40.786745 -111.978273 313 4236ft 0kts
28-Apr-18 16:17 40.786745 -111.978273 313 4236ft 0kts
28-Apr-18 16:18 40.786745 -111.978273 313 4236ft 0kts
28-Apr-18 16:19 40.786745 -111.978273 313 4236ft 0kts
28-Apr-18 16:20 40.786745 -111.978273 313 4236ft 0kts
28-Apr-18 16:21 40.786745 -111.978273 313 4236ft 0kts
28-Apr-18 16:22 40.786745 -111.978273 313 4236ft 0kts
28-Apr-18 16:23 40.786745 -111.978273 313 4236ft 0kts
28-Apr-18 16:24 40.786745 -111.978273 313 4236ft 0kts
28-Apr-18 16:25 40.786745 -111.978273 313 4236ft 0kts
28-Apr-18 16:26 40.786745 -111.978273 313 4236ft 0kts
28-Apr-18 16:27 40.786426 -111.977910 313 4236ft 2kts
28-Apr-18 16:28 40.786100 -111.978101 86 4236ft 1kts
28-Apr-18 16:29 40.786072 -111.978457 84 4236ft 0kts
28-Apr-18 16:30 40.786056 -111.978654 83 4236ft 0kts
28-Apr-18 16:31 40.786060 -111.978605 82 4236ft 0kts
28-Apr-18 16:32 40.786834 -111.976722 355 4236ft 13kts
28-Apr-18 16:33 40.792202 -111.977368 355 4236ft 26kts
28-Apr-18 16:34 40.799589 -111.978254 356 4236ft 27kts
28-Apr-18 16:35 40.806367 -111.978540 352 4236ft 19kts
28-Apr-18 16:36 40.805922 -111.976762 174 4236ft 15kts
28-Apr-18 16:37 40.769851 -111.972945 179 6191ft 201kts
28-Apr-18 16:38 40.714388 -111.969149 178 11293ft 216kts
28-Apr-18 16:39 40.644449 -111.964517 178 14066ft 289kts
28-Apr-18 16:40 40.556633 -111.958646 179 16021ft 363kts
28-Apr-18 16:41 40.462634 -111.952040 179 16006ft 301kts
28-Apr-18 16:42 40.376744 -111.946132 179 19297ft 316kts
28-Apr-18 16:43 40.287632 -111.940034 179 22688ft 331kts
28-Apr-18 16:44 40.195463 -111.950821 189 25370ft 340kts
28-Apr-18 16:45 40.099657 -111.965050 188 27349ft 360kts
28-Apr-18 16:46 39.994663 -111.980459 188 28067ft 402kts
28-Apr-18 16:47 39.881470 -111.996977 188 28707ft 431kts
28-Apr-18 16:48 39.761374 -112.014399 188 30049ft 436kts
28-Apr-18 16:49 39.641576 -112.031741 188 31597ft 432kts
28-Apr-18 16:50 39.523140 -112.048856 188 33057ft 428kts
28-Apr-18 16:51 39.405886 -112.065656 188 34389ft 423kts
28-Apr-18 16:52 39.289518 -112.082169 188 35531ft 420kts
28-Apr-18 16:53 39.174594 -112.098439 189 36561ft 418kts
28-Apr-18 16:54 39.068071 -112.152551 209 37322ft 415kts
28-Apr-18 16:55 38.967807 -112.225555 210 37858ft 417kts
28-Apr-18 16:56 38.867168 -112.298636 210 37875ft 423kts
28-Apr-18 16:57 38.764863 -112.372686 210 37880ft 423kts
28-Apr-18 16:58 38.663019 -112.446165 210 37901ft 422kts
28-Apr-18 16:59 38.560451 -112.519929 210 37911ft 422kts
28-Apr-18 17:00 38.458538 -112.592982 210 37910ft 422kts
28-Apr-18 17:01 38.356555 -112.665846 210 37909ft 422kts
28-Apr-18 17:02 38.254519 -112.738512 210 37913ft 423kts
28-Apr-18 17:03 38.151966 -112.811307 210 37915ft 423kts
28-Apr-18 17:04 38.050312 -112.883217 209 37913ft 415kts
28-Apr-18 17:05 37.949939 -112.954016 209 37962ft 416kts
28-Apr-18 17:06 37.849205 -113.024845 210 37977ft 416kts
28-Apr-18 17:07 37.752908 -113.103850 219 37980ft 415kts
28-Apr-18 17:08 37.663456 -113.196059 219 37975ft 415kts
28-Apr-18 17:09 37.574282 -113.287689 219 37970ft 415kts
28-Apr-18 17:10 37.485156 -113.378989 219 37937ft 415kts
28-Apr-18 17:11 37.395648 -113.470394 219 37867ft 414kts
28-Apr-18 17:12 37.306722 -113.560917 219 37851ft 414kts
28-Apr-18 17:13 37.217296 -113.651666 218 37855ft 414kts
28-Apr-18 17:14 37.127889 -113.742112 218 37858ft 415kts
28-Apr-18 17:15 37.038052 -113.832707 219 37851ft 416kts
28-Apr-18 17:16 36.947996 -113.923245 220 37842ft 418kts
28-Apr-18 17:17 36.857664 -114.013771 220 37859ft 421kts
28-Apr-18 17:18 36.766495 -114.104845 220 37874ft 421kts
28-Apr-18 17:19 36.675162 -114.195794 220 37870ft 421kts
28-Apr-18 17:20 36.584036 -114.286262 220 37860ft 420kts
28-Apr-18 17:21 36.492436 -114.376914 220 37845ft 420kts
28-Apr-18 17:22 36.401226 -114.466903 220 37846ft 420kts
28-Apr-18 17:23 36.310145 -114.556487 220 37851ft 420kts
28-Apr-18 17:24 36.218822 -114.646036 220 37853ft 420kts
28-Apr-18 17:25 36.127774 -114.735039 220 37865ft 420kts
28-Apr-18 17:26 36.036022 -114.824458 220 37866ft 420kts
28-Apr-18 17:27 35.952449 -114.922990 229 37868ft 418kts
28-Apr-18 17:28 35.874425 -115.029506 230 37874ft 418kts
28-Apr-18 17:29 35.796451 -115.135656 231 37873ft 420kts
28-Apr-18 17:30 35.717626 -115.242651 232 37868ft 426kts
28-Apr-18 17:31 35.640324 -115.347222 232 37906ft 429kts
28-Apr-18 17:32 35.560372 -115.455052 232 37926ft 429kts
28-Apr-18 17:33 35.479939 -115.563201 232 37920ft 429kts
28-Apr-18 17:34 35.399976 -115.670382 232 37909ft 429kts
28-Apr-18 17:35 35.319811 -115.777465 232 36438ft 425kts
28-Apr-18 17:36 35.240595 -115.882966 232 33896ft 422kts
28-Apr-18 17:37 35.159477 -115.986355 230 30978ft 425kts
28-Apr-18 17:38 35.077085 -116.090151 229 27651ft 431kts
28-Apr-18 17:39 34.994210 -116.194167 229 24980ft 413kts
28-Apr-18 17:40 34.918892 -116.288339 229 24701ft 378kts
28-Apr-18 17:41 34.846303 -116.380036 230 24627ft 383kts
28-Apr-18 17:42 34.772809 -116.473728 230 24909ft 382kts
28-Apr-18 17:43 34.699565 -116.566507 228 24846ft 381kts
28-Apr-18 17:44 34.622183 -116.644294 223 24500ft 371kts
28-Apr-18 17:45 34.541803 -116.725738 221 22773ft 382kts
28-Apr-18 17:46 34.463266 -116.807652 226 21725ft 373kts
28-Apr-18 17:47 34.392330 -116.889828 227 20408ft 326kts
28-Apr-18 17:48 34.328874 -116.963036 226 18114ft 323kts
28-Apr-18 17:49 34.269054 -117.032948 225 15667ft 293kts
28-Apr-18 17:50 34.196756 -117.085003 213 13081ft 331kts
28-Apr-18 17:51 34.112348 -117.134303 207 12377ft 336kts
28-Apr-18 17:52 34.028044 -117.179313 206 11003ft 330kts
28-Apr-18 17:53 33.959862 -117.247479 232 11016ft 307kts
28-Apr-18 17:54 33.908542 -117.319444 232 10267ft 270kts
28-Apr-18 17:55 33.863091 -117.383734 232 9458ft 247kts
28-Apr-18 17:56 33.819201 -117.446591 241 8231ft 242kts
28-Apr-18 17:57 33.797565 -117.521912 269 8022ft 237kts
28-Apr-18 17:58 33.810188 -117.597850 293 7756ft 231kts
28-Apr-18 17:59 33.835686 -117.668051 292 6484ft 227kts
28-Apr-18 18:00 33.855571 -117.739278 254 4666ft 225kts
28-Apr-18 18:01 33.810154 -117.783524 208 2912ft 224kts
28-Apr-18 18:02 33.759833 -117.815633 209 1760ft 220kts
28-Apr-18 18:03 33.704082 -117.850383 209 645ft 210kts
28-Apr-18 18:04 33.670850 -117.871888 209 57ft 29kts
28-Apr-18 18:05 33.670538 -117.869319 44 55ft 24kts
28-Apr-18 18:06 33.675125 -117.865870 27 50ft 14kts
28-Apr-18 18:07 33.676823 -117.863943 115 46ft 0kts

Navigation Log

Ident Type
Flight plan parsing failed, navigation log unavailable